sensor_id;sensor_type;location;lat;lon;timestamp;pressure;altitude;pressure_sealevel;temperature;humidity
42859;BME280;28505;56.970;40.998;2023-05-11T00:00:21;100656.81;;;7.25;100.00
42859;BME280;28505;56.970;40.998;2023-05-11T00:05:46;100664.13;;;7.30;100.00
42859;BME280;28505;56.970;40.998;2023-05-11T00:11:09;100664.63;;;7.26;100.00
42859;BME280;28505;56.970;40.998;2023-05-11T00:16:32;100667.00;;;7.23;100.00
42859;BME280;28505;56.970;40.998;2023-05-11T00:21:54;100669.22;;;7.31;100.00
42859;BME280;28505;56.970;40.998;2023-05-11T00:27:16;100665.72;;;7.31;100.00
42859;BME280;28505;56.970;40.998;2023-05-11T00:32:38;100668.34;;;7.25;100.00
42859;BME280;28505;56.970;40.998;2023-05-11T00:38:00;100671.81;;;7.21;100.00
42859;BME280;28505;56.970;40.998;2023-05-11T00:43:22;100669.22;;;7.04;100.00
42859;BME280;28505;56.970;40.998;2023-05-11T00:48:44;100671.28;;;6.97;100.00
42859;BME280;28505;56.970;40.998;2023-05-11T00:54:07;100669.47;;;7.02;100.00
42859;BME280;28505;56.970;40.998;2023-05-11T00:59:36;100665.38;;;6.95;100.00
42859;BME280;28505;56.970;40.998;2023-05-11T01:04:58;100672.78;;;7.10;100.00
42859;BME280;28505;56.970;40.998;2023-05-11T01:10:34;100673.56;;;7.10;100.00
42859;BME280;28505;56.970;40.998;2023-05-11T01:16:05;100668.41;;;7.03;100.00
42859;BME280;28505;56.970;40.998;2023-05-11T01:21:30;100673.72;;;6.98;100.00
42859;BME280;28505;56.970;40.998;2023-05-11T01:32:41;100675.47;;;7.10;100.00
42859;BME280;28505;56.970;40.998;2023-05-11T01:38:05;100683.44;;;7.04;100.00
42859;BME280;28505;56.970;40.998;2023-05-11T01:43:34;100677.69;;;6.96;100.00
42859;BME280;28505;56.970;40.998;2023-05-11T01:49:01;100685.84;;;7.06;100.00
42859;BME280;28505;56.970;40.998;2023-05-11T01:54:24;100669.56;;;7.13;100.00
42859;BME280;28505;56.970;40.998;2023-05-11T01:59:49;100676.97;;;7.27;100.00
42859;BME280;28505;56.970;40.998;2023-05-11T02:05:21;100672.38;;;7.23;100.00
42859;BME280;28505;56.970;40.998;2023-05-11T02:10:45;100680.09;;;7.46;100.00
42859;BME280;28505;56.970;40.998;2023-05-11T02:16:08;100673.41;;;7.49;100.00
42859;BME280;28505;56.970;40.998;2023-05-11T02:21:31;100679.75;;;7.70;100.00
42859;BME280;28505;56.970;40.998;2023-05-11T02:26:54;100679.59;;;7.87;100.00
42859;BME280;28505;56.970;40.998;2023-05-11T02:32:19;100684.25;;;7.96;100.00
42859;BME280;28505;56.970;40.998;2023-05-11T02:37:45;100688.13;;;8.16;100.00
42859;BME280;28505;56.970;40.998;2023-05-11T02:43:17;100677.78;;;8.35;100.00
42859;BME280;28505;56.970;40.998;2023-05-11T02:48:51;100679.59;;;8.66;100.00
42859;BME280;28505;56.970;40.998;2023-05-11T02:54:17;100689.28;;;8.78;100.00
42859;BME280;28505;56.970;40.998;2023-05-11T02:59:44;100688.03;;;9.01;100.00
42859;BME280;28505;56.970;40.998;2023-05-11T03:05:07;100694.25;;;9.17;100.00
42859;BME280;28505;56.970;40.998;2023-05-11T03:10:30;100699.41;;;9.44;100.00
42859;BME280;28505;56.970;40.998;2023-05-11T03:15:53;100698.06;;;9.41;100.00
42859;BME280;28505;56.970;40.998;2023-05-11T03:21:17;100699.69;;;9.57;100.00
42859;BME280;28505;56.970;40.998;2023-05-11T03:26:44;100702.94;;;9.95;100.00
42859;BME280;28505;56.970;40.998;2023-05-11T03:32:07;100702.63;;;10.32;100.00
42859;BME280;28505;56.970;40.998;2023-05-11T03:37:35;100711.13;;;10.75;100.00
42859;BME280;28505;56.970;40.998;2023-05-11T03:43:01;100714.94;;;11.24;100.00
42859;BME280;28505;56.970;40.998;2023-05-11T03:48:25;100729.72;;;11.76;100.00
42859;BME280;28505;56.970;40.998;2023-05-11T03:53:48;100727.63;;;12.02;100.00
42859;BME280;28505;56.970;40.998;2023-05-11T03:59:14;100732.41;;;12.87;100.00
42859;BME280;28505;56.970;40.998;2023-05-11T04:04:49;100724.97;;;15.22;86.50
42859;BME280;28505;56.970;40.998;2023-05-11T04:10:13;100724.63;;;17.16;64.70
42859;BME280;28505;56.970;40.998;2023-05-11T04:15:35;100732.19;;;18.44;56.23
42859;BME280;28505;56.970;40.998;2023-05-11T04:20:58;100729.19;;;18.66;54.28
42859;BME280;28505;56.970;40.998;2023-05-11T04:26:20;100730.31;;;20.45;47.71
42859;BME280;28505;56.970;40.998;2023-05-11T04:31:42;100729.19;;;20.34;50.50
42859;BME280;28505;56.970;40.998;2023-05-11T04:37:04;100728.19;;;19.09;48.58
42859;BME280;28505;56.970;40.998;2023-05-11T04:42:29;100732.56;;;18.81;48.97
42859;BME280;28505;56.970;40.998;2023-05-11T04:47:55;100731.72;;;19.52;48.00
42859;BME280;28505;56.970;40.998;2023-05-11T04:53:18;100725.69;;;18.95;46.60
42859;BME280;28505;56.970;40.998;2023-05-11T04:58:40;100722.00;;;19.42;46.84
42859;BME280;28505;56.970;40.998;2023-05-11T05:04:02;100723.16;;;22.58;42.75
42859;BME280;28505;56.970;40.998;2023-05-11T05:09:24;100723.06;;;24.22;40.28
42859;BME280;28505;56.970;40.998;2023-05-11T05:14:46;100724.97;;;23.76;38.71
42859;BME280;28505;56.970;40.998;2023-05-11T05:20:08;100720.72;;;24.97;36.88
42859;BME280;28505;56.970;40.998;2023-05-11T05:25:31;100720.28;;;24.68;36.16
42859;BME280;28505;56.970;40.998;2023-05-11T05:30:53;100710.38;;;24.90;35.95
42859;BME280;28505;56.970;40.998;2023-05-11T05:36:16;100712.63;;;28.46;33.42
42859;BME280;28505;56.970;40.998;2023-05-11T05:41:38;100706.09;;;29.35;28.98
42859;BME280;28505;56.970;40.998;2023-05-11T05:47:04;100707.47;;;28.48;30.30
42859;BME280;28505;56.970;40.998;2023-05-11T05:52:28;100704.09;;;27.49;30.78
42859;BME280;28505;56.970;40.998;2023-05-11T05:57:51;100700.31;;;28.36;29.98
42859;BME280;28505;56.970;40.998;2023-05-11T06:03:13;100701.66;;;30.22;26.82
42859;BME280;28505;56.970;40.998;2023-05-11T06:08:35;100697.84;;;29.10;27.37
42859;BME280;28505;56.970;40.998;2023-05-11T06:13:58;100702.59;;;26.34;30.35
42859;BME280;28505;56.970;40.998;2023-05-11T06:19:20;100706.38;;;25.41;31.18
42859;BME280;28505;56.970;40.998;2023-05-11T06:24:43;100710.94;;;24.04;32.56
42859;BME280;28505;56.970;40.998;2023-05-11T06:30:06;100719.94;;;24.24;32.96
42859;BME280;28505;56.970;40.998;2023-05-11T06:35:30;100707.78;;;24.74;32.03
42859;BME280;28505;56.970;40.998;2023-05-11T06:40:53;100707.16;;;27.23;29.78
42859;BME280;28505;56.970;40.998;2023-05-11T06:46:16;100708.56;;;27.79;28.68
42859;BME280;28505;56.970;40.998;2023-05-11T06:51:38;100714.53;;;26.46;29.01
42859;BME280;28505;56.970;40.998;2023-05-11T06:57:00;100707.94;;;25.76;31.34
42859;BME280;28505;56.970;40.998;2023-05-11T07:02:24;100691.75;;;25.10;29.75
42859;BME280;28505;56.970;40.998;2023-05-11T07:07:46;100696.31;;;26.93;28.68
42859;BME280;28505;56.970;40.998;2023-05-11T07:13:08;100699.91;;;28.02;27.69
42859;BME280;28505;56.970;40.998;2023-05-11T07:18:30;100702.47;;;26.17;29.68
42859;BME280;28505;56.970;40.998;2023-05-11T07:23:52;100699.97;;;25.07;30.73
42859;BME280;28505;56.970;40.998;2023-05-11T07:29:14;100709.25;;;23.76;31.67
42859;BME280;28505;56.970;40.998;2023-05-11T07:34:37;100714.31;;;23.35;33.04
42859;BME280;28505;56.970;40.998;2023-05-11T07:40:00;100704.88;;;23.95;31.69
42859;BME280;28505;56.970;40.998;2023-05-11T07:45:24;100711.66;;;24.43;33.31
42859;BME280;28505;56.970;40.998;2023-05-11T07:50:46;100703.31;;;23.74;31.14
42859;BME280;28505;56.970;40.998;2023-05-11T07:56:10;100698.78;;;22.57;33.57
42859;BME280;28505;56.970;40.998;2023-05-11T08:01:32;100694.91;;;24.10;32.03
42859;BME280;28505;56.970;40.998;2023-05-11T08:06:55;100688.72;;;22.96;33.64
42859;BME280;28505;56.970;40.998;2023-05-11T08:12:17;100680.88;;;24.18;35.66
42859;BME280;28505;56.970;40.998;2023-05-11T08:17:39;100663.16;;;26.45;30.41
42859;BME280;28505;56.970;40.998;2023-05-11T08:23:03;100672.59;;;28.08;28.13
42859;BME280;28505;56.970;40.998;2023-05-11T08:28:25;100663.88;;;27.84;26.49
42859;BME280;28505;56.970;40.998;2023-05-11T08:33:48;100658.06;;;26.47;27.39
42859;BME280;28505;56.970;40.998;2023-05-11T08:39:10;100664.75;;;24.17;29.96
42859;BME280;28505;56.970;40.998;2023-05-11T08:44:32;100662.38;;;23.34;29.86
42859;BME280;28505;56.970;40.998;2023-05-11T08:49:56;100660.22;;;22.88;32.53
42859;BME280;28505;56.970;40.998;2023-05-11T08:55:20;100660.97;;;23.82;30.62
42859;BME280;28505;56.970;40.998;2023-05-11T09:00:43;100656.16;;;22.82;31.18
42859;BME280;28505;56.970;40.998;2023-05-11T09:06:06;100655.50;;;23.05;32.89
42859;BME280;28505;56.970;40.998;2023-05-11T09:11:29;100651.94;;;22.34;32.00
42859;BME280;28505;56.970;40.998;2023-05-11T09:16:51;100670.72;;;21.72;33.32
42859;BME280;28505;56.970;40.998;2023-05-11T09:22:14;100670.53;;;20.35;35.55
42859;BME280;28505;56.970;40.998;2023-05-11T09:27:40;100671.94;;;19.29;37.80
42859;BME280;28505;56.970;40.998;2023-05-11T09:33:03;100661.47;;;19.31;36.94
42859;BME280;28505;56.970;40.998;2023-05-11T09:38:26;100654.91;;;19.66;36.10
42859;BME280;28505;56.970;40.998;2023-05-11T09:43:47;100650.13;;;20.57;35.18
42859;BME280;28505;56.970;40.998;2023-05-11T09:49:11;100640.13;;;22.02;33.68
42859;BME280;28505;56.970;40.998;2023-05-11T09:54:46;100638.34;;;22.57;32.53
42859;BME280;28505;56.970;40.998;2023-05-11T10:00:13;100625.97;;;22.31;33.07
42859;BME280;28505;56.970;40.998;2023-05-11T10:05:35;100622.63;;;22.93;32.70
42859;BME280;28505;56.970;40.998;2023-05-11T10:10:58;100612.13;;;22.43;32.61
42859;BME280;28505;56.970;40.998;2023-05-11T10:16:22;100600.91;;;21.41;34.40
42859;BME280;28505;56.970;40.998;2023-05-11T10:21:44;100603.25;;;21.71;33.39
42859;BME280;28505;56.970;40.998;2023-05-11T10:27:07;100620.66;;;20.78;35.66
42859;BME280;28505;56.970;40.998;2023-05-11T10:32:30;100613.97;;;20.51;36.49
42859;BME280;28505;56.970;40.998;2023-05-11T10:37:53;100634.91;;;20.84;35.93
42859;BME280;28505;56.970;40.998;2023-05-11T10:44:35;100634.09;;;19.52;38.92
42859;BME280;28505;56.970;40.998;2023-05-11T11:07:03;100648.59;;;20.10;40.22
42859;BME280;28505;56.970;40.998;2023-05-11T11:12:28;100638.72;;;21.08;37.25
42859;BME280;28505;56.970;40.998;2023-05-11T11:18:24;100629.63;;;20.91;37.72
42859;BME280;28505;56.970;40.998;2023-05-11T11:23:48;100621.53;;;20.83;37.58
42859;BME280;28505;56.970;40.998;2023-05-11T11:29:10;100615.25;;;20.94;38.44
42859;BME280;28505;56.970;40.998;2023-05-11T11:34:33;100610.97;;;21.65;35.92
42859;BME280;28505;56.970;40.998;2023-05-11T11:39:57;100607.00;;;21.94;35.33
42859;BME280;28505;56.970;40.998;2023-05-11T11:45:35;100620.44;;;21.12;37.28
42859;BME280;28505;56.970;40.998;2023-05-11T11:51:10;100612.66;;;19.75;39.05
42859;BME280;28505;56.970;40.998;2023-05-11T12:01:55;100604.72;;;19.28;39.56
42859;BME280;28505;56.970;40.998;2023-05-11T12:07:19;100606.47;;;19.33;40.51
42859;BME280;28505;56.970;40.998;2023-05-11T12:12:46;100606.09;;;19.34;41.32
42859;BME280;28505;56.970;40.998;2023-05-11T12:18:20;100607.13;;;19.63;41.92
42859;BME280;28505;56.970;40.998;2023-05-11T12:23:51;100604.88;;;19.77;41.85
42859;BME280;28505;56.970;40.998;2023-05-11T12:29:14;100602.25;;;19.81;41.52
42859;BME280;28505;56.970;40.998;2023-05-11T12:34:36;100606.59;;;19.70;40.11
42859;BME280;28505;56.970;40.998;2023-05-11T12:39:58;100611.19;;;19.90;40.59
42859;BME280;28505;56.970;40.998;2023-05-11T12:45:24;100591.22;;;19.77;39.88
42859;BME280;28505;56.970;40.998;2023-05-11T12:50:46;100592.06;;;19.24;41.00
42859;BME280;28505;56.970;40.998;2023-05-11T12:56:09;100576.38;;;19.33;39.86
42859;BME280;28505;56.970;40.998;2023-05-11T13:01:31;100577.50;;;19.65;39.03
42859;BME280;28505;56.970;40.998;2023-05-11T13:06:53;100573.31;;;19.80;37.87
42859;BME280;28505;56.970;40.998;2023-05-11T13:12:16;100580.41;;;20.05;36.63
42859;BME280;28505;56.970;40.998;2023-05-11T13:17:40;100577.88;;;20.37;36.56
42859;BME280;28505;56.970;40.998;2023-05-11T13:28:26;100564.28;;;20.65;36.30
42859;BME280;28505;56.970;40.998;2023-05-11T13:33:49;100562.59;;;20.36;36.88
42859;BME280;28505;56.970;40.998;2023-05-11T13:39:11;100564.91;;;19.85;37.04
42859;BME280;28505;56.970;40.998;2023-05-11T13:44:33;100562.63;;;19.08;38.54
42859;BME280;28505;56.970;40.998;2023-05-11T13:49:56;100558.19;;;18.83;39.43
42859;BME280;28505;56.970;40.998;2023-05-11T13:55:18;100559.75;;;18.42;39.77
42859;BME280;28505;56.970;40.998;2023-05-11T14:00:40;100552.88;;;18.36;40.04
42859;BME280;28505;56.970;40.998;2023-05-11T14:06:13;100553.44;;;18.92;39.66
42859;BME280;28505;56.970;40.998;2023-05-11T14:11:35;100547.81;;;19.09;38.91
42859;BME280;28505;56.970;40.998;2023-05-11T14:16:59;100544.72;;;19.44;38.49
42859;BME280;28505;56.970;40.998;2023-05-11T14:22:21;100542.44;;;19.34;38.53
42859;BME280;28505;56.970;40.998;2023-05-11T14:27:43;100535.03;;;19.34;38.06
42859;BME280;28505;56.970;40.998;2023-05-11T14:33:06;100529.41;;;19.18;37.79
42859;BME280;28505;56.970;40.998;2023-05-11T14:38:27;100533.03;;;19.10;37.90
42859;BME280;28505;56.970;40.998;2023-05-11T14:43:50;100539.06;;;19.16;37.47
42859;BME280;28505;56.970;40.998;2023-05-11T14:49:12;100540.94;;;19.24;38.12
42859;BME280;28505;56.970;40.998;2023-05-11T14:54:34;100541.94;;;19.20;38.37
42859;BME280;28505;56.970;40.998;2023-05-11T14:59:56;100538.44;;;19.31;39.02
42859;BME280;28505;56.970;40.998;2023-05-11T15:05:23;100541.66;;;19.00;40.98
42859;BME280;28505;56.970;40.998;2023-05-11T15:10:40;100539.91;;;18.95;41.25
42859;BME280;28505;56.970;40.998;2023-05-11T15:16:03;100538.25;;;18.82;41.91
42859;BME280;28505;56.970;40.998;2023-05-11T15:21:26;100542.09;;;19.02;42.03
42859;BME280;28505;56.970;40.998;2023-05-11T15:26:48;100541.44;;;19.05;42.84
42859;BME280;28505;56.970;40.998;2023-05-11T15:32:12;100535.91;;;18.93;43.07
42859;BME280;28505;56.970;40.998;2023-05-11T15:37:36;100535.09;;;18.71;43.28
42859;BME280;28505;56.970;40.998;2023-05-11T15:42:58;100540.50;;;18.59;43.47
42859;BME280;28505;56.970;40.998;2023-05-11T15:48:21;100536.50;;;18.06;44.24
42859;BME280;28505;56.970;40.998;2023-05-11T15:53:43;100528.41;;;17.42;45.97
42859;BME280;28505;56.970;40.998;2023-05-11T15:59:05;100528.09;;;17.35;45.22
42859;BME280;28505;56.970;40.998;2023-05-11T16:04:27;100523.16;;;17.19;46.15
42859;BME280;28505;56.970;40.998;2023-05-11T16:09:49;100506.34;;;17.00;46.24
42859;BME280;28505;56.970;40.998;2023-05-11T16:15:12;100516.78;;;16.72;46.69
42859;BME280;28505;56.970;40.998;2023-05-11T16:20:34;100529.00;;;16.00;53.33
42859;BME280;28505;56.970;40.998;2023-05-11T16:25:56;100524.75;;;15.45;57.21
42859;BME280;28505;56.970;40.998;2023-05-11T16:31:18;100532.44;;;14.98;60.78
42859;BME280;28505;56.970;40.998;2023-05-11T16:36:41;100534.22;;;14.80;62.61
42859;BME280;28505;56.970;40.998;2023-05-11T16:42:03;100537.97;;;14.70;62.12
42859;BME280;28505;56.970;40.998;2023-05-11T16:47:25;100535.97;;;14.48;63.90
42859;BME280;28505;56.970;40.998;2023-05-11T16:52:47;100543.06;;;14.08;69.78
42859;BME280;28505;56.970;40.998;2023-05-11T16:58:09;100544.06;;;13.71;68.00
42859;BME280;28505;56.970;40.998;2023-05-11T17:03:31;100551.94;;;13.21;72.48
42859;BME280;28505;56.970;40.998;2023-05-11T17:08:56;100569.41;;;12.77;80.15
42859;BME280;28505;56.970;40.998;2023-05-11T17:14:18;100556.97;;;12.57;78.50
42859;BME280;28505;56.970;40.998;2023-05-11T17:19:40;100574.25;;;12.18;83.90
42859;BME280;28505;56.970;40.998;2023-05-11T17:25:02;100580.00;;;11.87;85.10
42859;BME280;28505;56.970;40.998;2023-05-11T17:30:25;100577.78;;;11.60;86.88
42859;BME280;28505;56.970;40.998;2023-05-11T17:36:08;100591.53;;;11.35;90.48
42859;BME280;28505;56.970;40.998;2023-05-11T17:41:30;100588.47;;;11.12;96.65
42859;BME280;28505;56.970;40.998;2023-05-11T17:46:53;100586.97;;;10.91;93.67
42859;BME280;28505;56.970;40.998;2023-05-11T17:52:15;100582.53;;;10.66;100.00
42859;BME280;28505;56.970;40.998;2023-05-11T17:57:37;100589.19;;;10.19;100.00
42859;BME280;28505;56.970;40.998;2023-05-11T18:02:59;100594.63;;;10.08;100.00
42859;BME280;28505;56.970;40.998;2023-05-11T18:08:24;100588.47;;;9.98;100.00
42859;BME280;28505;56.970;40.998;2023-05-11T18:13:46;100590.91;;;9.79;100.00
42859;BME280;28505;56.970;40.998;2023-05-11T18:19:08;100596.88;;;9.55;100.00
42859;BME280;28505;56.970;40.998;2023-05-11T18:24:30;100595.53;;;9.48;100.00
42859;BME280;28505;56.970;40.998;2023-05-11T18:29:52;100584.22;;;9.20;100.00
42859;BME280;28505;56.970;40.998;2023-05-11T18:35:14;100589.31;;;9.11;100.00
42859;BME280;28505;56.970;40.998;2023-05-11T18:40:39;100582.59;;;8.94;100.00
42859;BME280;28505;56.970;40.998;2023-05-11T18:46:06;100580.41;;;8.75;100.00
42859;BME280;28505;56.970;40.998;2023-05-11T18:51:31;100587.88;;;8.63;100.00
42859;BME280;28505;56.970;40.998;2023-05-11T18:56:53;100580.28;;;8.39;100.00
42859;BME280;28505;56.970;40.998;2023-05-11T19:02:15;100579.63;;;8.12;100.00
42859;BME280;28505;56.970;40.998;2023-05-11T19:07:37;100570.72;;;8.06;100.00
42859;BME280;28505;56.970;40.998;2023-05-11T19:12:59;100583.81;;;7.97;100.00
42859;BME280;28505;56.970;40.998;2023-05-11T19:18:21;100574.00;;;7.66;100.00
42859;BME280;28505;56.970;40.998;2023-05-11T19:23:43;100574.00;;;7.71;100.00
42859;BME280;28505;56.970;40.998;2023-05-11T19:29:06;100579.47;;;7.86;100.00
42859;BME280;28505;56.970;40.998;2023-05-11T19:34:32;100586.72;;;7.86;100.00
42859;BME280;28505;56.970;40.998;2023-05-11T19:39:56;100588.44;;;7.60;100.00
42859;BME280;28505;56.970;40.998;2023-05-11T19:45:39;100577.19;;;7.63;100.00
42859;BME280;28505;56.970;40.998;2023-05-11T19:51:04;100579.09;;;7.30;100.00
42859;BME280;28505;56.970;40.998;2023-05-11T19:56:26;100594.91;;;7.32;100.00
42859;BME280;28505;56.970;40.998;2023-05-11T20:01:48;100588.72;;;7.26;100.00
42859;BME280;28505;56.970;40.998;2023-05-11T20:07:10;100586.53;;;6.91;100.00
42859;BME280;28505;56.970;40.998;2023-05-11T20:12:32;100597.94;;;6.81;100.00
42859;BME280;28505;56.970;40.998;2023-05-11T20:17:54;100595.94;;;6.93;100.00
42859;BME280;28505;56.970;40.998;2023-05-11T20:23:16;100601.44;;;6.82;100.00
42859;BME280;28505;56.970;40.998;2023-05-11T20:28:36;100593.78;;;6.68;100.00
42859;BME280;28505;56.970;40.998;2023-05-11T20:33:59;100592.13;;;6.40;100.00
42859;BME280;28505;56.970;40.998;2023-05-11T20:39:24;100599.50;;;6.28;100.00
42859;BME280;28505;56.970;40.998;2023-05-11T20:44:49;100592.69;;;6.20;100.00
42859;BME280;28505;56.970;40.998;2023-05-11T20:50:13;100595.28;;;5.93;100.00
42859;BME280;28505;56.970;40.998;2023-05-11T20:55:35;100587.72;;;5.90;100.00
42859;BME280;28505;56.970;40.998;2023-05-11T21:00:58;100597.97;;;5.76;100.00
42859;BME280;28505;56.970;40.998;2023-05-11T21:06:20;100592.94;;;5.63;100.00
42859;BME280;28505;56.970;40.998;2023-05-11T21:11:42;100590.00;;;5.64;100.00
42859;BME280;28505;56.970;40.998;2023-05-11T21:17:04;100587.63;;;5.46;100.00
42859;BME280;28505;56.970;40.998;2023-05-11T21:22:26;100591.25;;;5.57;100.00
42859;BME280;28505;56.970;40.998;2023-05-11T21:27:48;100583.53;;;5.60;100.00
42859;BME280;28505;56.970;40.998;2023-05-11T21:33:11;100585.91;;;5.57;100.00
42859;BME280;28505;56.970;40.998;2023-05-11T21:38:33;100583.13;;;5.35;100.00
42859;BME280;28505;56.970;40.998;2023-05-11T21:43:55;100588.06;;;5.26;100.00
42859;BME280;28505;56.970;40.998;2023-05-11T21:49:17;100593.72;;;4.96;100.00
42859;BME280;28505;56.970;40.998;2023-05-11T21:54:39;100592.00;;;4.90;100.00
42859;BME280;28505;56.970;40.998;2023-05-11T22:00:02;100587.22;;;4.92;100.00
42859;BME280;28505;56.970;40.998;2023-05-11T22:05:27;100584.28;;;4.77;100.00
42859;BME280;28505;56.970;40.998;2023-05-11T22:10:49;100593.09;;;4.77;100.00
42859;BME280;28505;56.970;40.998;2023-05-11T22:16:13;100590.19;;;4.79;100.00
42859;BME280;28505;56.970;40.998;2023-05-11T22:21:35;100587.97;;;4.87;100.00
42859;BME280;28505;56.970;40.998;2023-05-11T22:26:58;100592.94;;;4.84;100.00
42859;BME280;28505;56.970;40.998;2023-05-11T22:32:22;100582.69;;;4.64;100.00
42859;BME280;28505;56.970;40.998;2023-05-11T22:37:44;100582.56;;;4.42;100.00
42859;BME280;28505;56.970;40.998;2023-05-11T22:43:06;100574.03;;;4.57;100.00
42859;BME280;28505;56.970;40.998;2023-05-11T22:48:27;100576.06;;;4.66;100.00
42859;BME280;28505;56.970;40.998;2023-05-11T22:53:49;100577.00;;;4.72;100.00
42859;BME280;28505;56.970;40.998;2023-05-11T22:59:12;100570.06;;;4.59;100.00
42859;BME280;28505;56.970;40.998;2023-05-11T23:04:34;100568.81;;;4.50;100.00
42859;BME280;28505;56.970;40.998;2023-05-11T23:09:55;100567.34;;;4.42;100.00
42859;BME280;28505;56.970;40.998;2023-05-11T23:15:17;100575.84;;;4.28;100.00
42859;BME280;28505;56.970;40.998;2023-05-11T23:20:39;100573.53;;;4.31;100.00
42859;BME280;28505;56.970;40.998;2023-05-11T23:26:01;100569.53;;;4.05;100.00
42859;BME280;28505;56.970;40.998;2023-05-11T23:31:24;100569.78;;;3.92;100.00
42859;BME280;28505;56.970;40.998;2023-05-11T23:36:48;100565.38;;;3.97;100.00
42859;BME280;28505;56.970;40.998;2023-05-11T23:42:10;100564.56;;;4.09;100.00
42859;BME280;28505;56.970;40.998;2023-05-11T23:47:32;100563.41;;;3.93;100.00
42859;BME280;28505;56.970;40.998;2023-05-11T23:52:54;100558.66;;;3.83;100.00
42859;BME280;28505;56.970;40.998;2023-05-11T23:58:16;100560.88;;;3.86;100.00
